Earlton, NY (12058)

9:43 AM EST on December 29, 2014 (GMT -0500)
KNYGREEN19 | Change Station
CLOSE
Current Station
Personal Weather Station
Location: Greenville, NY
Elevation: 835 ft
Nearby Weather Stations

Elev 835 ft 42.41 °N, 74.01 °W | Updated 2 minutes ago

Partly Cloudy
Partly Cloudy
32.4 °F
Feels Like 32 °F
N
0.0
Wind Variable Wind from West
Gusts 2.0 mph

Today
High -- | Low -- °F
--% Chance of Precip.
Yesterday
High -- | Low -- °F
Precip. -- in
7:24 AM 4:31 PM
First Quarter, 59% visible
Pressure 30.17 in
Visibility 10.0 miles
Clouds Few 4500 ft
Scattered Clouds 6000 ft
Scattered Clouds 23000 ft
Windchill 32 °F
Dew Point 26 °F
Humidity 77%
Rainfall 0.00 in
Snow Depth Not available.
UV 0 out of 12
Pollen .10 out of 12
Air Quality Not available.
Flu Activity Not available.
METAR KALB 291351Z 26007KT 10SM FEW045 SCT060 SCT230 01/M04 A3016 RMK AO2 SLP215 T00111044

More Conditions Fewer Conditions

Pressure 30.17 in
Visibility 10.0 miles
Clouds Few 4500 ft
Scattered Clouds 6000 ft
Scattered Clouds 23000 ft
Windchill 32 °F
Dew Point 26 °F
Humidity 77%
Rainfall 0.00 in
Snow Depth Not available.
UV 0 out of 12
Pollen .10 out of 12
Air Quality Not available.
Flu Activity Not available.
METAR KALB 291351Z 26007KT 10SM FEW045 SCT060 SCT230 01/M04 A3016 RMK AO2 SLP215 T00111044

More Conditions Fewer Conditions

10-Day Weather Forecast

Almanac

Astronomy

Dec. 29, 2014 Rise Set
Actual Time
Civil Twilight
Nautical Twilight
Astronomical Twilight
Moon
Length of Visible Light
Length of Day
Tomorrow will be .
, % of the Moon is Illuminated

Today's Extremes

State Highs State Lows

Community

WunderPhotos

Upload Photos

1,781,591 photos uploaded!

WunderBlogs® & News

Nearby

Air Quality

  Air Quality AQ Index Pollutant
Not available.

Snow Depth

Station Depth Elevation

Earthquake Activity

City Distance Mag. Time & Date
Minimum magnitude displayed is 2.5.

Coastal Water Temperatures

Place Temperature

Nearby Weather Stations